sensor_id;sensor_type;location;lat;lon;timestamp;P1;durP1;ratioP1;P2;durP2;ratioP2
12896;SDS011;6516;35.028;32.372;2022-10-31T00:01:51;8.30;;;4.60;;
12896;SDS011;6516;35.028;32.372;2022-10-31T00:04:19;10.73;;;4.68;;
12896;SDS011;6516;35.028;32.372;2022-10-31T00:06:47;9.27;;;4.70;;
12896;SDS011;6516;35.028;32.372;2022-10-31T00:09:15;8.30;;;4.47;;
12896;SDS011;6516;35.028;32.372;2022-10-31T00:11:42;9.27;;;4.50;;
12896;SDS011;6516;35.028;32.372;2022-10-31T00:14:11;9.20;;;4.40;;
12896;SDS011;6516;35.028;32.372;2022-10-31T00:16:39;8.38;;;4.82;;
12896;SDS011;6516;35.028;32.372;2022-10-31T00:19:07;10.50;;;4.47;;
12896;SDS011;6516;35.028;32.372;2022-10-31T00:21:36;9.93;;;4.40;;
12896;SDS011;6516;35.028;32.372;2022-10-31T00:24:04;11.50;;;4.77;;
12896;SDS011;6516;35.028;32.372;2022-10-31T00:26:34;8.77;;;5.30;;
12896;SDS011;6516;35.028;32.372;2022-10-31T00:29:02;9.52;;;4.70;;
12896;SDS011;6516;35.028;32.372;2022-10-31T00:31:32;9.35;;;5.30;;
12896;SDS011;6516;35.028;32.372;2022-10-31T00:34:00;10.30;;;4.93;;
12896;SDS011;6516;35.028;32.372;2022-10-31T00:36:29;10.77;;;4.93;;
12896;SDS011;6516;35.028;32.372;2022-10-31T00:38:58;10.25;;;4.70;;
12896;SDS011;6516;35.028;32.372;2022-10-31T00:41:26;9.00;;;4.93;;
12896;SDS011;6516;35.028;32.372;2022-10-31T00:43:54;9.52;;;5.00;;
12896;SDS011;6516;35.028;32.372;2022-10-31T00:46:25;10.20;;;5.03;;
12896;SDS011;6516;35.028;32.372;2022-10-31T00:48:54;9.03;;;4.63;;
12896;SDS011;6516;35.028;32.372;2022-10-31T00:51:22;10.35;;;4.70;;
12896;SDS011;6516;35.028;32.372;2022-10-31T00:53:50;9.27;;;4.90;;
12896;SDS011;6516;35.028;32.372;2022-10-31T00:56:18;11.57;;;5.20;;
12896;SDS011;6516;35.028;32.372;2022-10-31T00:58:46;9.80;;;4.90;;
12896;SDS011;6516;35.028;32.372;2022-10-31T01:01:14;8.60;;;5.00;;
12896;SDS011;6516;35.028;32.372;2022-10-31T01:03:41;9.65;;;5.38;;
12896;SDS011;6516;35.028;32.372;2022-10-31T01:06:11;10.48;;;4.60;;
12896;SDS011;6516;35.028;32.372;2022-10-31T01:08:41;9.25;;;4.60;;
12896;SDS011;6516;35.028;32.372;2022-10-31T01:11:12;8.27;;;4.97;;
12896;SDS011;6516;35.028;32.372;2022-10-31T01:13:43;11.97;;;5.00;;
12896;SDS011;6516;35.028;32.372;2022-10-31T01:16:12;10.63;;;5.13;;
12896;SDS011;6516;35.028;32.372;2022-10-31T01:18:42;13.10;;;4.90;;
12896;SDS011;6516;35.028;32.372;2022-10-31T01:21:13;8.48;;;4.97;;
12896;SDS011;6516;35.028;32.372;2022-10-31T01:23:43;11.43;;;4.90;;
12896;SDS011;6516;35.028;32.372;2022-10-31T01:26:11;9.90;;;5.10;;
12896;SDS011;6516;35.028;32.372;2022-10-31T01:28:43;8.45;;;5.13;;
12896;SDS011;6516;35.028;32.372;2022-10-31T01:31:14;10.77;;;5.10;;
12896;SDS011;6516;35.028;32.372;2022-10-31T01:33:43;8.77;;;5.28;;
12896;SDS011;6516;35.028;32.372;2022-10-31T01:36:15;14.00;;;5.55;;
12896;SDS011;6516;35.028;32.372;2022-10-31T01:38:46;8.80;;;5.07;;
12896;SDS011;6516;35.028;32.372;2022-10-31T01:41:16;9.38;;;4.97;;
12896;SDS011;6516;35.028;32.372;2022-10-31T01:43:48;8.00;;;5.07;;
12896;SDS011;6516;35.028;32.372;2022-10-31T01:46:20;9.85;;;5.20;;
12896;SDS011;6516;35.028;32.372;2022-10-31T01:48:52;10.88;;;4.82;;
12896;SDS011;6516;35.028;32.372;2022-10-31T01:51:25;10.27;;;5.10;;
12896;SDS011;6516;35.028;32.372;2022-10-31T01:53:57;7.57;;;4.68;;
12896;SDS011;6516;35.028;32.372;2022-10-31T01:56:29;8.23;;;4.97;;
12896;SDS011;6516;35.028;32.372;2022-10-31T01:58:59;10.82;;;5.18;;
12896;SDS011;6516;35.028;32.372;2022-10-31T02:01:32;8.50;;;5.18;;
12896;SDS011;6516;35.028;32.372;2022-10-31T02:04:00;11.67;;;5.07;;
12896;SDS011;6516;35.028;32.372;2022-10-31T02:06:30;9.60;;;5.10;;
12896;SDS011;6516;35.028;32.372;2022-10-31T02:09:07;9.57;;;5.38;;
12896;SDS011;6516;35.028;32.372;2022-10-31T02:11:35;8.23;;;5.10;;
12896;SDS011;6516;35.028;32.372;2022-10-31T02:14:04;10.55;;;5.10;;
12896;SDS011;6516;35.028;32.372;2022-10-31T02:16:32;8.53;;;5.13;;
12896;SDS011;6516;35.028;32.372;2022-10-31T02:19:00;9.68;;;4.88;;
12896;SDS011;6516;35.028;32.372;2022-10-31T02:21:32;9.07;;;5.18;;
12896;SDS011;6516;35.028;32.372;2022-10-31T02:27:21;9.13;;;4.97;;
12896;SDS011;6516;35.028;32.372;2022-10-31T02:30:17;8.63;;;5.60;;
12896;SDS011;6516;35.028;32.372;2022-10-31T02:32:55;8.57;;;4.85;;
12896;SDS011;6516;35.028;32.372;2022-10-31T02:35:40;9.73;;;4.72;;
12896;SDS011;6516;35.028;32.372;2022-10-31T02:38:24;11.68;;;4.95;;
12896;SDS011;6516;35.028;32.372;2022-10-31T02:41:01;8.65;;;5.03;;
12896;SDS011;6516;35.028;32.372;2022-10-31T02:43:41;10.13;;;5.20;;
12896;SDS011;6516;35.028;32.372;2022-10-31T02:46:17;9.15;;;5.05;;
12896;SDS011;6516;35.028;32.372;2022-10-31T02:48:55;9.63;;;4.88;;
12896;SDS011;6516;35.028;32.372;2022-10-31T02:51:30;8.90;;;4.55;;
12896;SDS011;6516;35.028;32.372;2022-10-31T02:53:58;10.45;;;4.93;;
12896;SDS011;6516;35.028;32.372;2022-10-31T02:56:26;8.03;;;4.83;;
12896;SDS011;6516;35.028;32.372;2022-10-31T02:58:55;10.07;;;5.57;;
12896;SDS011;6516;35.028;32.372;2022-10-31T03:01:33;10.60;;;5.00;;
12896;SDS011;6516;35.028;32.372;2022-10-31T03:04:34;9.10;;;4.70;;
12896;SDS011;6516;35.028;32.372;2022-10-31T03:07:47;9.52;;;4.97;;
12896;SDS011;6516;35.028;32.372;2022-10-31T03:10:27;11.10;;;5.10;;
12896;SDS011;6516;35.028;32.372;2022-10-31T03:13:05;11.05;;;5.00;;
12896;SDS011;6516;35.028;32.372;2022-10-31T03:15:39;8.85;;;5.10;;
12896;SDS011;6516;35.028;32.372;2022-10-31T03:18:11;9.50;;;5.57;;
12896;SDS011;6516;35.028;32.372;2022-10-31T03:20:45;10.85;;;5.13;;
12896;SDS011;6516;35.028;32.372;2022-10-31T03:23:20;9.57;;;5.37;;
12896;SDS011;6516;35.028;32.372;2022-10-31T03:25:50;9.38;;;5.22;;
12896;SDS011;6516;35.028;32.372;2022-10-31T03:28:23;9.10;;;5.28;;
12896;SDS011;6516;35.028;32.372;2022-10-31T03:30:56;9.35;;;4.95;;
12896;SDS011;6516;35.028;32.372;2022-10-31T03:33:27;8.65;;;4.90;;
12896;SDS011;6516;35.028;32.372;2022-10-31T03:36:00;10.83;;;4.93;;
12896;SDS011;6516;35.028;32.372;2022-10-31T03:38:33;9.65;;;5.05;;
12896;SDS011;6516;35.028;32.372;2022-10-31T03:41:03;8.63;;;4.82;;
12896;SDS011;6516;35.028;32.372;2022-10-31T03:43:38;10.18;;;5.30;;
12896;SDS011;6516;35.028;32.372;2022-10-31T03:46:13;9.05;;;4.68;;
12896;SDS011;6516;35.028;32.372;2022-10-31T03:48:41;9.33;;;4.93;;
12896;SDS011;6516;35.028;32.372;2022-10-31T03:51:13;9.88;;;5.13;;
12896;SDS011;6516;35.028;32.372;2022-10-31T03:53:48;14.45;;;5.28;;
12896;SDS011;6516;35.028;32.372;2022-10-31T03:56:24;8.48;;;4.93;;
12896;SDS011;6516;35.028;32.372;2022-10-31T03:59:02;14.07;;;5.60;;
12896;SDS011;6516;35.028;32.372;2022-10-31T04:01:35;8.83;;;4.77;;
12896;SDS011;6516;35.028;32.372;2022-10-31T04:04:07;8.13;;;4.63;;
12896;SDS011;6516;35.028;32.372;2022-10-31T04:06:38;9.10;;;4.47;;
12896;SDS011;6516;35.028;32.372;2022-10-31T04:09:08;9.73;;;5.13;;
12896;SDS011;6516;35.028;32.372;2022-10-31T04:11:38;7.95;;;5.00;;
12896;SDS011;6516;35.028;32.372;2022-10-31T04:14:14;10.10;;;5.57;;
12896;SDS011;6516;35.028;32.372;2022-10-31T04:16:42;8.75;;;5.10;;
12896;SDS011;6516;35.028;32.372;2022-10-31T04:19:11;13.27;;;5.20;;
12896;SDS011;6516;35.028;32.372;2022-10-31T04:21:41;8.93;;;5.00;;
12896;SDS011;6516;35.028;32.372;2022-10-31T04:24:09;8.80;;;5.72;;
12896;SDS011;6516;35.028;32.372;2022-10-31T04:26:38;8.40;;;5.00;;
12896;SDS011;6516;35.028;32.372;2022-10-31T04:29:06;9.70;;;5.30;;
12896;SDS011;6516;35.028;32.372;2022-10-31T04:31:33;9.57;;;5.32;;
12896;SDS011;6516;35.028;32.372;2022-10-31T04:34:02;9.30;;;4.60;;
12896;SDS011;6516;35.028;32.372;2022-10-31T04:36:30;9.15;;;4.75;;
12896;SDS011;6516;35.028;32.372;2022-10-31T04:38:59;11.90;;;5.37;;
12896;SDS011;6516;35.028;32.372;2022-10-31T04:41:27;9.32;;;5.13;;
12896;SDS011;6516;35.028;32.372;2022-10-31T04:43:54;8.70;;;4.88;;
12896;SDS011;6516;35.028;32.372;2022-10-31T04:46:22;7.93;;;4.55;;
12896;SDS011;6516;35.028;32.372;2022-10-31T04:48:50;9.20;;;4.82;;
12896;SDS011;6516;35.028;32.372;2022-10-31T04:51:17;8.03;;;4.37;;
12896;SDS011;6516;35.028;32.372;2022-10-31T04:53:45;9.18;;;4.40;;
12896;SDS011;6516;35.028;32.372;2022-10-31T04:56:15;10.23;;;4.72;;
12896;SDS011;6516;35.028;32.372;2022-10-31T04:58:43;8.77;;;4.70;;
12896;SDS011;6516;35.028;32.372;2022-10-31T05:01:12;7.82;;;4.45;;
12896;SDS011;6516;35.028;32.372;2022-10-31T05:03:40;8.77;;;4.50;;
12896;SDS011;6516;35.028;32.372;2022-10-31T05:06:07;10.43;;;4.68;;
12896;SDS011;6516;35.028;32.372;2022-10-31T05:08:35;9.55;;;4.60;;
12896;SDS011;6516;35.028;32.372;2022-10-31T05:11:03;7.85;;;4.43;;
12896;SDS011;6516;35.028;32.372;2022-10-31T05:13:33;8.05;;;4.60;;
12896;SDS011;6516;35.028;32.372;2022-10-31T05:16:01;7.93;;;4.80;;
12896;SDS011;6516;35.028;32.372;2022-10-31T05:18:29;9.57;;;4.38;;
12896;SDS011;6516;35.028;32.372;2022-10-31T05:20:57;10.15;;;4.95;;
12896;SDS011;6516;35.028;32.372;2022-10-31T05:23:25;6.80;;;4.22;;
12896;SDS011;6516;35.028;32.372;2022-10-31T05:25:54;8.00;;;4.28;;
12896;SDS011;6516;35.028;32.372;2022-10-31T05:28:21;7.40;;;3.87;;
12896;SDS011;6516;35.028;32.372;2022-10-31T05:30:50;7.28;;;3.90;;
12896;SDS011;6516;35.028;32.372;2022-10-31T05:33:19;10.43;;;3.83;;
12896;SDS011;6516;35.028;32.372;2022-10-31T05:35:46;6.63;;;3.53;;
12896;SDS011;6516;35.028;32.372;2022-10-31T05:38:15;6.70;;;3.58;;
12896;SDS011;6516;35.028;32.372;2022-10-31T05:40:43;7.87;;;3.90;;
12896;SDS011;6516;35.028;32.372;2022-10-31T05:43:10;7.10;;;3.53;;
12896;SDS011;6516;35.028;32.372;2022-10-31T05:45:38;7.10;;;3.80;;
12896;SDS011;6516;35.028;32.372;2022-10-31T05:48:07;6.82;;;3.78;;
12896;SDS011;6516;35.028;32.372;2022-10-31T05:50:35;8.45;;;3.60;;
12896;SDS011;6516;35.028;32.372;2022-10-31T05:53:04;7.57;;;3.37;;
12896;SDS011;6516;35.028;32.372;2022-10-31T05:55:32;6.00;;;3.40;;
12896;SDS011;6516;35.028;32.372;2022-10-31T05:58:00;7.60;;;3.70;;
12896;SDS011;6516;35.028;32.372;2022-10-31T06:00:28;7.03;;;3.40;;
12896;SDS011;6516;35.028;32.372;2022-10-31T06:02:57;6.03;;;3.38;;
12896;SDS011;6516;35.028;32.372;2022-10-31T06:05:27;6.50;;;3.33;;
12896;SDS011;6516;35.028;32.372;2022-10-31T06:07:55;6.13;;;3.20;;
12896;SDS011;6516;35.028;32.372;2022-10-31T06:10:24;6.80;;;3.45;;
12896;SDS011;6516;35.028;32.372;2022-10-31T06:12:53;6.30;;;3.30;;
12896;SDS011;6516;35.028;32.372;2022-10-31T06:15:21;5.85;;;3.10;;
12896;SDS011;6516;35.028;32.372;2022-10-31T06:18:00;6.20;;;2.90;;
12896;SDS011;6516;35.028;32.372;2022-10-31T06:20:32;7.65;;;3.15;;
12896;SDS011;6516;35.028;32.372;2022-10-31T06:23:00;7.53;;;2.80;;
12896;SDS011;6516;35.028;32.372;2022-10-31T06:25:29;6.85;;;3.00;;
12896;SDS011;6516;35.028;32.372;2022-10-31T06:27:58;6.50;;;3.00;;
12896;SDS011;6516;35.028;32.372;2022-10-31T06:30:26;6.03;;;3.00;;
12896;SDS011;6516;35.028;32.372;2022-10-31T06:32:53;7.20;;;2.88;;
12896;SDS011;6516;35.028;32.372;2022-10-31T06:35:21;6.30;;;2.92;;
12896;SDS011;6516;35.028;32.372;2022-10-31T06:37:53;7.18;;;3.10;;
12896;SDS011;6516;35.028;32.372;2022-10-31T06:40:22;7.03;;;3.22;;
12896;SDS011;6516;35.028;32.372;2022-10-31T06:42:55;6.43;;;2.90;;
12896;SDS011;6516;35.028;32.372;2022-10-31T06:45:24;6.10;;;3.20;;
12896;SDS011;6516;35.028;32.372;2022-10-31T06:47:53;7.13;;;3.45;;
12896;SDS011;6516;35.028;32.372;2022-10-31T06:50:21;6.78;;;3.15;;
12896;SDS011;6516;35.028;32.372;2022-10-31T06:52:50;6.47;;;3.10;;
12896;SDS011;6516;35.028;32.372;2022-10-31T06:55:20;7.53;;;3.00;;
12896;SDS011;6516;35.028;32.372;2022-10-31T06:57:49;6.43;;;2.88;;
12896;SDS011;6516;35.028;32.372;2022-10-31T07:00:17;6.05;;;2.72;;
12896;SDS011;6516;35.028;32.372;2022-10-31T07:02:52;5.32;;;2.60;;
12896;SDS011;6516;35.028;32.372;2022-10-31T07:05:21;6.80;;;2.78;;
12896;SDS011;6516;35.028;32.372;2022-10-31T07:07:51;7.07;;;2.70;;
12896;SDS011;6516;35.028;32.372;2022-10-31T07:10:21;6.38;;;3.00;;
12896;SDS011;6516;35.028;32.372;2022-10-31T07:12:53;5.30;;;2.47;;
12896;SDS011;6516;35.028;32.372;2022-10-31T07:15:22;8.20;;;2.63;;
12896;SDS011;6516;35.028;32.372;2022-10-31T07:17:50;5.28;;;2.50;;
12896;SDS011;6516;35.028;32.372;2022-10-31T07:20:18;6.03;;;2.80;;
12896;SDS011;6516;35.028;32.372;2022-10-31T07:22:46;6.25;;;2.80;;
12896;SDS011;6516;35.028;32.372;2022-10-31T07:25:14;6.28;;;2.60;;
12896;SDS011;6516;35.028;32.372;2022-10-31T07:27:44;5.53;;;2.58;;
12896;SDS011;6516;35.028;32.372;2022-10-31T07:30:13;7.25;;;2.90;;
12896;SDS011;6516;35.028;32.372;2022-10-31T07:32:42;5.30;;;2.50;;
12896;SDS011;6516;35.028;32.372;2022-10-31T07:35:12;5.35;;;2.60;;
12896;SDS011;6516;35.028;32.372;2022-10-31T07:37:42;4.57;;;2.33;;
12896;SDS011;6516;35.028;32.372;2022-10-31T07:40:10;5.07;;;2.42;;
12896;SDS011;6516;35.028;32.372;2022-10-31T07:42:39;5.45;;;2.35;;
12896;SDS011;6516;35.028;32.372;2022-10-31T07:45:10;5.23;;;2.20;;
12896;SDS011;6516;35.028;32.372;2022-10-31T07:47:41;5.88;;;2.65;;
12896;SDS011;6516;35.028;32.372;2022-10-31T07:50:12;8.07;;;2.38;;
12896;SDS011;6516;35.028;32.372;2022-10-31T07:52:41;5.13;;;2.28;;
12896;SDS011;6516;35.028;32.372;2022-10-31T07:55:09;6.47;;;2.42;;
12896;SDS011;6516;35.028;32.372;2022-10-31T07:57:37;6.17;;;2.70;;
12896;SDS011;6516;35.028;32.372;2022-10-31T08:00:06;5.40;;;2.65;;
12896;SDS011;6516;35.028;32.372;2022-10-31T08:02:37;7.97;;;2.83;;
12896;SDS011;6516;35.028;32.372;2022-10-31T08:05:05;5.07;;;2.50;;
12896;SDS011;6516;35.028;32.372;2022-10-31T08:07:35;7.00;;;2.78;;
12896;SDS011;6516;35.028;32.372;2022-10-31T08:10:04;5.77;;;2.73;;
12896;SDS011;6516;35.028;32.372;2022-10-31T08:12:32;7.22;;;2.83;;
12896;SDS011;6516;35.028;32.372;2022-10-31T08:15:00;5.82;;;2.75;;
12896;SDS011;6516;35.028;32.372;2022-10-31T08:17:29;6.53;;;2.80;;
12896;SDS011;6516;35.028;32.372;2022-10-31T08:19:57;6.40;;;2.85;;
12896;SDS011;6516;35.028;32.372;2022-10-31T08:22:25;5.07;;;2.77;;
12896;SDS011;6516;35.028;32.372;2022-10-31T08:24:52;6.53;;;2.97;;
12896;SDS011;6516;35.028;32.372;2022-10-31T08:27:20;5.80;;;2.88;;
12896;SDS011;6516;35.028;32.372;2022-10-31T08:29:48;7.55;;;2.92;;
12896;SDS011;6516;35.028;32.372;2022-10-31T08:32:16;8.30;;;2.60;;
12896;SDS011;6516;35.028;32.372;2022-10-31T08:34:45;6.77;;;2.80;;
12896;SDS011;6516;35.028;32.372;2022-10-31T08:37:13;5.97;;;2.65;;
12896;SDS011;6516;35.028;32.372;2022-10-31T08:39:45;5.55;;;2.67;;
12896;SDS011;6516;35.028;32.372;2022-10-31T08:42:13;5.72;;;2.65;;
12896;SDS011;6516;35.028;32.372;2022-10-31T08:44:40;6.97;;;2.70;;
12896;SDS011;6516;35.028;32.372;2022-10-31T08:47:08;5.13;;;2.57;;
12896;SDS011;6516;35.028;32.372;2022-10-31T08:49:36;6.60;;;2.70;;
12896;SDS011;6516;35.028;32.372;2022-10-31T08:52:05;5.78;;;2.60;;
12896;SDS011;6516;35.028;32.372;2022-10-31T08:54:33;7.20;;;2.63;;
12896;SDS011;6516;35.028;32.372;2022-10-31T08:57:01;6.40;;;3.00;;
12896;SDS011;6516;35.028;32.372;2022-10-31T08:59:29;5.63;;;2.70;;
12896;SDS011;6516;35.028;32.372;2022-10-31T09:01:57;5.88;;;2.80;;
12896;SDS011;6516;35.028;32.372;2022-10-31T09:04:25;6.38;;;2.50;;
12896;SDS011;6516;35.028;32.372;2022-10-31T09:06:52;5.22;;;2.63;;
12896;SDS011;6516;35.028;32.372;2022-10-31T09:09:22;6.57;;;2.28;;
12896;SDS011;6516;35.028;32.372;2022-10-31T09:11:50;5.20;;;2.80;;
12896;SDS011;6516;35.028;32.372;2022-10-31T09:14:18;5.75;;;2.42;;
12896;SDS011;6516;35.028;32.372;2022-10-31T09:16:45;5.57;;;2.40;;
12896;SDS011;6516;35.028;32.372;2022-10-31T09:19:13;6.50;;;2.50;;
12896;SDS011;6516;35.028;32.372;2022-10-31T09:21:41;5.22;;;2.60;;
12896;SDS011;6516;35.028;32.372;2022-10-31T09:24:09;7.47;;;2.60;;
12896;SDS011;6516;35.028;32.372;2022-10-31T09:26:38;7.68;;;2.40;;
12896;SDS011;6516;35.028;32.372;2022-10-31T09:29:06;6.18;;;2.50;;
12896;SDS011;6516;35.028;32.372;2022-10-31T09:31:35;6.05;;;2.70;;
12896;SDS011;6516;35.028;32.372;2022-10-31T09:34:03;6.35;;;2.58;;
12896;SDS011;6516;35.028;32.372;2022-10-31T09:36:31;7.33;;;2.77;;
12896;SDS011;6516;35.028;32.372;2022-10-31T09:38:59;6.35;;;2.70;;
12896;SDS011;6516;35.028;32.372;2022-10-31T09:41:28;5.55;;;2.60;;
12896;SDS011;6516;35.028;32.372;2022-10-31T09:44:10;5.82;;;2.53;;
12896;SDS011;6516;35.028;32.372;2022-10-31T09:46:49;6.50;;;3.00;;
12896;SDS011;6516;35.028;32.372;2022-10-31T09:49:30;7.20;;;3.00;;
12896;SDS011;6516;35.028;32.372;2022-10-31T09:52:11;6.85;;;2.95;;
12896;SDS011;6516;35.028;32.372;2022-10-31T09:54:49;5.65;;;2.90;;
12896;SDS011;6516;35.028;32.372;2022-10-31T09:57:24;7.38;;;3.20;;
12896;SDS011;6516;35.028;32.372;2022-10-31T09:59:56;6.65;;;2.90;;
12896;SDS011;6516;35.028;32.372;2022-10-31T10:02:27;6.87;;;2.87;;
12896;SDS011;6516;35.028;32.372;2022-10-31T10:05:03;10.48;;;2.90;;
12896;SDS011;6516;35.028;32.372;2022-10-31T10:07:38;7.05;;;3.13;;
12896;SDS011;6516;35.028;32.372;2022-10-31T10:10:15;6.65;;;3.00;;
12896;SDS011;6516;35.028;32.372;2022-10-31T10:12:55;7.55;;;3.10;;
12896;SDS011;6516;35.028;32.372;2022-10-31T10:15:45;8.00;;;3.20;;
12896;SDS011;6516;35.028;32.372;2022-10-31T10:18:30;6.38;;;2.50;;
12896;SDS011;6516;35.028;32.372;2022-10-31T10:21:11;8.13;;;2.95;;
12896;SDS011;6516;35.028;32.372;2022-10-31T10:23:56;9.65;;;3.20;;
12896;SDS011;6516;35.028;32.372;2022-10-31T10:26:40;6.22;;;2.85;;
12896;SDS011;6516;35.028;32.372;2022-10-31T10:29:21;7.30;;;2.90;;
12896;SDS011;6516;35.028;32.372;2022-10-31T10:32:04;6.88;;;3.05;;
12896;SDS011;6516;35.028;32.372;2022-10-31T10:34:39;6.10;;;2.90;;
12896;SDS011;6516;35.028;32.372;2022-10-31T10:37:16;6.20;;;2.95;;
12896;SDS011;6516;35.028;32.372;2022-10-31T10:39:53;10.45;;;3.35;;
12896;SDS011;6516;35.028;32.372;2022-10-31T10:42:26;8.37;;;3.50;;
12896;SDS011;6516;35.028;32.372;2022-10-31T10:45:17;7.15;;;3.28;;
12896;SDS011;6516;35.028;32.372;2022-10-31T10:48:07;8.18;;;3.08;;
12896;SDS011;6516;35.028;32.372;2022-10-31T10:50:44;7.00;;;3.53;;
12896;SDS011;6516;35.028;32.372;2022-10-31T10:53:18;6.82;;;3.17;;
12896;SDS011;6516;35.028;32.372;2022-10-31T10:56:08;9.60;;;3.77;;
12896;SDS011;6516;35.028;32.372;2022-10-31T10:58:44;7.70;;;3.15;;
12896;SDS011;6516;35.028;32.372;2022-10-31T11:01:14;11.20;;;3.75;;
12896;SDS011;6516;35.028;32.372;2022-10-31T11:03:42;7.80;;;3.50;;
12896;SDS011;6516;35.028;32.372;2022-10-31T11:06:16;7.70;;;3.60;;
12896;SDS011;6516;35.028;32.372;2022-10-31T11:08:48;8.90;;;3.70;;
12896;SDS011;6516;35.028;32.372;2022-10-31T11:11:22;12.88;;;4.07;;
12896;SDS011;6516;35.028;32.372;2022-10-31T11:13:55;9.68;;;3.70;;
12896;SDS011;6516;35.028;32.372;2022-10-31T11:16:32;7.90;;;3.78;;
12896;SDS011;6516;35.028;32.372;2022-10-31T11:19:07;12.00;;;4.00;;
12896;SDS011;6516;35.028;32.372;2022-10-31T11:22:14;9.43;;;3.65;;
12896;SDS011;6516;35.028;32.372;2022-10-31T11:24:44;9.70;;;4.00;;
12896;SDS011;6516;35.028;32.372;2022-10-31T11:27:13;7.70;;;3.87;;
12896;SDS011;6516;35.028;32.372;2022-10-31T11:29:43;10.63;;;4.15;;
12896;SDS011;6516;35.028;32.372;2022-10-31T11:32:16;11.77;;;4.00;;
12896;SDS011;6516;35.028;32.372;2022-10-31T11:34:47;7.30;;;3.65;;
12896;SDS011;6516;35.028;32.372;2022-10-31T11:37:21;7.25;;;4.00;;
12896;SDS011;6516;35.028;32.372;2022-10-31T11:39:52;7.43;;;3.60;;
12896;SDS011;6516;35.028;32.372;2022-10-31T11:42:24;8.45;;;3.80;;
12896;SDS011;6516;35.028;32.372;2022-10-31T11:44:54;9.18;;;4.20;;
12896;SDS011;6516;35.028;32.372;2022-10-31T11:47:25;8.70;;;4.05;;
12896;SDS011;6516;35.028;32.372;2022-10-31T11:49:56;8.77;;;3.88;;
12896;SDS011;6516;35.028;32.372;2022-10-31T11:52:31;7.03;;;3.90;;
12896;SDS011;6516;35.028;32.372;2022-10-31T11:55:01;7.80;;;3.80;;
12896;SDS011;6516;35.028;32.372;2022-10-31T11:57:44;8.07;;;3.90;;
12896;SDS011;6516;35.028;32.372;2022-10-31T12:00:20;8.07;;;3.90;;
12896;SDS011;6516;35.028;32.372;2022-10-31T12:03:03;9.98;;;3.90;;
12896;SDS011;6516;35.028;32.372;2022-10-31T12:05:39;8.37;;;3.93;;
12896;SDS011;6516;35.028;32.372;2022-10-31T12:08:11;11.40;;;3.88;;
12896;SDS011;6516;35.028;32.372;2022-10-31T12:10:42;8.63;;;3.85;;
12896;SDS011;6516;35.028;32.372;2022-10-31T12:13:26;7.47;;;3.80;;
12896;SDS011;6516;35.028;32.372;2022-10-31T12:16:06;9.32;;;3.78;;
12896;SDS011;6516;35.028;32.372;2022-10-31T12:21:47;9.07;;;4.00;;
12896;SDS011;6516;35.028;32.372;2022-10-31T12:24:33;9.98;;;3.83;;
12896;SDS011;6516;35.028;32.372;2022-10-31T12:27:34;10.65;;;4.00;;
12896;SDS011;6516;35.028;32.372;2022-10-31T12:30:20;8.68;;;4.03;;
12896;SDS011;6516;35.028;32.372;2022-10-31T12:32:56;9.10;;;3.93;;
12896;SDS011;6516;35.028;32.372;2022-10-31T12:35:42;7.78;;;3.97;;
12896;SDS011;6516;35.028;32.372;2022-10-31T12:38:35;6.30;;;3.97;;
12896;SDS011;6516;35.028;32.372;2022-10-31T12:41:29;9.15;;;3.95;;
12896;SDS011;6516;35.028;32.372;2022-10-31T12:44:21;6.57;;;3.88;;
12896;SDS011;6516;35.028;32.372;2022-10-31T12:47:32;8.80;;;3.70;;
12896;SDS011;6516;35.028;32.372;2022-10-31T12:50:22;6.93;;;3.97;;
12896;SDS011;6516;35.028;32.372;2022-10-31T12:53:02;9.50;;;3.88;;
12896;SDS011;6516;35.028;32.372;2022-10-31T12:55:51;9.27;;;3.88;;
12896;SDS011;6516;35.028;32.372;2022-10-31T12:58:33;7.00;;;3.85;;
12896;SDS011;6516;35.028;32.372;2022-10-31T13:01:07;6.77;;;3.80;;
12896;SDS011;6516;35.028;32.372;2022-10-31T13:03:42;6.82;;;4.10;;
12896;SDS011;6516;35.028;32.372;2022-10-31T13:06:18;9.35;;;4.35;;
12896;SDS011;6516;35.028;32.372;2022-10-31T13:08:49;10.05;;;4.10;;
12896;SDS011;6516;35.028;32.372;2022-10-31T13:11:22;8.13;;;4.10;;
12896;SDS011;6516;35.028;32.372;2022-10-31T13:13:58;8.13;;;4.53;;
12896;SDS011;6516;35.028;32.372;2022-10-31T13:16:34;7.63;;;4.00;;
12896;SDS011;6516;35.028;32.372;2022-10-31T13:19:07;8.30;;;4.63;;
12896;SDS011;6516;35.028;32.372;2022-10-31T13:21:44;9.43;;;3.80;;
12896;SDS011;6516;35.028;32.372;2022-10-31T13:24:23;8.65;;;4.25;;
12896;SDS011;6516;35.028;32.372;2022-10-31T13:27:01;9.57;;;3.93;;
12896;SDS011;6516;35.028;32.372;2022-10-31T13:29:39;9.63;;;3.97;;
12896;SDS011;6516;35.028;32.372;2022-10-31T13:32:20;10.70;;;4.30;;
12896;SDS011;6516;35.028;32.372;2022-10-31T13:34:50;8.07;;;4.30;;
12896;SDS011;6516;35.028;32.372;2022-10-31T13:37:22;7.15;;;4.20;;
12896;SDS011;6516;35.028;32.372;2022-10-31T13:40:05;8.07;;;3.90;;
12896;SDS011;6516;35.028;32.372;2022-10-31T13:42:52;8.55;;;4.80;;
12896;SDS011;6516;35.028;32.372;2022-10-31T13:45:33;7.20;;;4.13;;
12896;SDS011;6516;35.028;32.372;2022-10-31T13:48:17;7.75;;;4.47;;
12896;SDS011;6516;35.028;32.372;2022-10-31T13:51:03;10.70;;;4.50;;
12896;SDS011;6516;35.028;32.372;2022-10-31T13:53:41;8.80;;;4.17;;
12896;SDS011;6516;35.028;32.372;2022-10-31T13:56:16;9.65;;;4.10;;
12896;SDS011;6516;35.028;32.372;2022-10-31T13:58:59;7.30;;;4.25;;
12896;SDS011;6516;35.028;32.372;2022-10-31T14:01:47;8.75;;;4.47;;
12896;SDS011;6516;35.028;32.372;2022-10-31T14:04:19;8.63;;;4.70;;
12896;SDS011;6516;35.028;32.372;2022-10-31T14:06:54;7.47;;;4.30;;
12896;SDS011;6516;35.028;32.372;2022-10-31T14:09:27;8.55;;;4.30;;
12896;SDS011;6516;35.028;32.372;2022-10-31T14:11:59;7.93;;;4.97;;
12896;SDS011;6516;35.028;32.372;2022-10-31T14:14:34;9.13;;;4.60;;
12896;SDS011;6516;35.028;32.372;2022-10-31T14:17:17;8.57;;;4.60;;
12896;SDS011;6516;35.028;32.372;2022-10-31T14:19:59;7.23;;;4.37;;
12896;SDS011;6516;35.028;32.372;2022-10-31T14:22:43;7.95;;;4.82;;
12896;SDS011;6516;35.028;32.372;2022-10-31T14:25:24;8.15;;;4.55;;
12896;SDS011;6516;35.028;32.372;2022-10-31T14:27:55;8.15;;;4.55;;
12896;SDS011;6516;35.028;32.372;2022-10-31T14:30:25;7.70;;;4.80;;
12896;SDS011;6516;35.028;32.372;2022-10-31T14:32:57;7.77;;;4.60;;
12896;SDS011;6516;35.028;32.372;2022-10-31T14:35:29;8.20;;;4.65;;
12896;SDS011;6516;35.028;32.372;2022-10-31T14:38:17;7.25;;;4.68;;
12896;SDS011;6516;35.028;32.372;2022-10-31T14:41:18;7.60;;;4.45;;
12896;SDS011;6516;35.028;32.372;2022-10-31T14:44:11;6.90;;;4.63;;
12896;SDS011;6516;35.028;32.372;2022-10-31T14:47:04;8.50;;;4.90;;
12896;SDS011;6516;35.028;32.372;2022-10-31T14:49:50;7.45;;;4.80;;
12896;SDS011;6516;35.028;32.372;2022-10-31T14:52:41;8.15;;;5.05;;
12896;SDS011;6516;35.028;32.372;2022-10-31T14:55:14;8.57;;;4.70;;
12896;SDS011;6516;35.028;32.372;2022-10-31T14:57:45;6.65;;;4.35;;
12896;SDS011;6516;35.028;32.372;2022-10-31T15:00:18;7.50;;;4.33;;
12896;SDS011;6516;35.028;32.372;2022-10-31T15:02:55;8.75;;;4.40;;
12896;SDS011;6516;35.028;32.372;2022-10-31T15:05:34;8.55;;;5.10;;
12896;SDS011;6516;35.028;32.372;2022-10-31T15:08:13;9.25;;;4.93;;
12896;SDS011;6516;35.028;32.372;2022-10-31T15:10:53;8.10;;;4.70;;
12896;SDS011;6516;35.028;32.372;2022-10-31T15:13:21;10.80;;;4.50;;
12896;SDS011;6516;35.028;32.372;2022-10-31T15:15:49;9.20;;;4.75;;
12896;SDS011;6516;35.028;32.372;2022-10-31T15:18:22;8.23;;;4.80;;
12896;SDS011;6516;35.028;32.372;2022-10-31T15:20:55;8.55;;;4.70;;
12896;SDS011;6516;35.028;32.372;2022-10-31T15:23:25;8.07;;;5.03;;
12896;SDS011;6516;35.028;32.372;2022-10-31T15:25:59;9.07;;;4.80;;
12896;SDS011;6516;35.028;32.372;2022-10-31T15:28:27;9.60;;;4.95;;